sensor_id;sensor_type;location;lat;lon;timestamp;P1;durP1;ratioP1;P2;durP2;ratioP2
55082;SDS011;40978;52.850;6.506;2023-05-31T00:00:12;5.20;;;3.88;;
55082;SDS011;40978;52.850;6.506;2023-05-31T00:02:41;7.95;;;4.00;;
55082;SDS011;40978;52.850;6.506;2023-05-31T00:05:07;10.32;;;4.00;;
55082;SDS011;40978;52.850;6.506;2023-05-31T00:07:33;8.32;;;4.00;;
55082;SDS011;40978;52.850;6.506;2023-05-31T00:09:59;9.15;;;4.90;;
55082;SDS011;40978;52.850;6.506;2023-05-31T00:12:24;5.65;;;3.90;;
55082;SDS011;40978;52.850;6.506;2023-05-31T00:14:50;6.72;;;3.95;;
55082;SDS011;40978;52.850;6.506;2023-05-31T00:17:16;9.02;;;4.63;;
55082;SDS011;40978;52.850;6.506;2023-05-31T00:19:42;7.85;;;4.38;;
55082;SDS011;40978;52.850;6.506;2023-05-31T00:22:08;8.15;;;4.35;;
55082;SDS011;40978;52.850;6.506;2023-05-31T00:24:34;7.35;;;4.45;;
55082;SDS011;40978;52.850;6.506;2023-05-31T00:27:00;12.13;;;4.53;;
55082;SDS011;40978;52.850;6.506;2023-05-31T00:29:26;6.30;;;3.97;;
55082;SDS011;40978;52.850;6.506;2023-05-31T00:31:52;8.05;;;4.70;;
55082;SDS011;40978;52.850;6.506;2023-05-31T00:34:20;8.85;;;4.70;;
55082;SDS011;40978;52.850;6.506;2023-05-31T00:36:46;7.65;;;5.00;;
55082;SDS011;40978;52.850;6.506;2023-05-31T00:39:12;8.38;;;4.32;;
55082;SDS011;40978;52.850;6.506;2023-05-31T00:41:40;10.15;;;4.38;;
55082;SDS011;40978;52.850;6.506;2023-05-31T00:44:06;9.07;;;4.65;;
55082;SDS011;40978;52.850;6.506;2023-05-31T00:46:34;8.38;;;4.68;;
55082;SDS011;40978;52.850;6.506;2023-05-31T00:49:02;9.13;;;4.88;;
55082;SDS011;40978;52.850;6.506;2023-05-31T00:51:29;7.18;;;4.45;;
55082;SDS011;40978;52.850;6.506;2023-05-31T00:53:57;11.18;;;4.88;;
55082;SDS011;40978;52.850;6.506;2023-05-31T00:56:24;8.35;;;4.60;;
55082;SDS011;40978;52.850;6.506;2023-05-31T00:58:51;8.13;;;4.97;;
55082;SDS011;40978;52.850;6.506;2023-05-31T01:01:18;6.13;;;4.63;;
55082;SDS011;40978;52.850;6.506;2023-05-31T01:03:46;8.43;;;5.07;;
55082;SDS011;40978;52.850;6.506;2023-05-31T01:06:12;9.25;;;5.40;;
55082;SDS011;40978;52.850;6.506;2023-05-31T01:08:38;6.68;;;5.10;;
55082;SDS011;40978;52.850;6.506;2023-05-31T01:11:17;7.80;;;5.15;;
55082;SDS011;40978;52.850;6.506;2023-05-31T01:16:50;8.88;;;5.63;;
55082;SDS011;40978;52.850;6.506;2023-05-31T01:19:53;12.27;;;5.40;;
55082;SDS011;40978;52.850;6.506;2023-05-31T01:28:17;7.38;;;5.00;;
55082;SDS011;40978;52.850;6.506;2023-05-31T01:30:44;12.50;;;6.18;;
55082;SDS011;40978;52.850;6.506;2023-05-31T01:33:16;11.00;;;6.05;;
55082;SDS011;40978;52.850;6.506;2023-05-31T01:35:43;11.60;;;6.30;;
55082;SDS011;40978;52.850;6.506;2023-05-31T01:38:11;11.00;;;6.40;;
55082;SDS011;40978;52.850;6.506;2023-05-31T01:40:37;13.48;;;6.38;;
55082;SDS011;40978;52.850;6.506;2023-05-31T01:43:04;10.23;;;5.70;;
55082;SDS011;40978;52.850;6.506;2023-05-31T01:45:32;11.20;;;5.70;;
55082;SDS011;40978;52.850;6.506;2023-05-31T01:48:04;13.13;;;6.47;;
55082;SDS011;40978;52.850;6.506;2023-05-31T01:50:33;11.25;;;6.28;;
55082;SDS011;40978;52.850;6.506;2023-05-31T01:53:00;11.27;;;6.18;;
55082;SDS011;40978;52.850;6.506;2023-05-31T01:55:26;10.85;;;6.28;;
55082;SDS011;40978;52.850;6.506;2023-05-31T01:57:53;9.38;;;5.43;;
55082;SDS011;40978;52.850;6.506;2023-05-31T02:00:21;10.05;;;5.85;;
55082;SDS011;40978;52.850;6.506;2023-05-31T02:02:48;10.65;;;6.05;;
55082;SDS011;40978;52.850;6.506;2023-05-31T02:05:15;9.35;;;6.03;;
55082;SDS011;40978;52.850;6.506;2023-05-31T02:07:41;11.52;;;6.03;;
55082;SDS011;40978;52.850;6.506;2023-05-31T02:10:13;10.60;;;6.25;;
55082;SDS011;40978;52.850;6.506;2023-05-31T02:12:46;14.10;;;6.35;;
55082;SDS011;40978;52.850;6.506;2023-05-31T02:15:15;9.45;;;6.28;;
55082;SDS011;40978;52.850;6.506;2023-05-31T02:17:45;11.90;;;6.47;;
55082;SDS011;40978;52.850;6.506;2023-05-31T02:20:15;13.00;;;6.40;;
55082;SDS011;40978;52.850;6.506;2023-05-31T02:22:40;8.60;;;5.40;;
55082;SDS011;40978;52.850;6.506;2023-05-31T02:25:16;9.55;;;6.63;;
55082;SDS011;40978;52.850;6.506;2023-05-31T02:27:42;11.85;;;6.40;;
55082;SDS011;40978;52.850;6.506;2023-05-31T02:30:11;10.15;;;7.00;;
55082;SDS011;40978;52.850;6.506;2023-05-31T02:32:37;11.65;;;6.20;;
55082;SDS011;40978;52.850;6.506;2023-05-31T02:35:07;9.70;;;6.78;;
55082;SDS011;40978;52.850;6.506;2023-05-31T02:37:34;11.10;;;6.20;;
55082;SDS011;40978;52.850;6.506;2023-05-31T02:40:02;11.27;;;6.97;;
55082;SDS011;40978;52.850;6.506;2023-05-31T02:42:34;8.98;;;6.70;;
55082;SDS011;40978;52.850;6.506;2023-05-31T02:45:00;12.00;;;6.75;;
55082;SDS011;40978;52.850;6.506;2023-05-31T02:47:26;14.55;;;7.20;;
55082;SDS011;40978;52.850;6.506;2023-05-31T02:49:52;10.82;;;7.25;;
55082;SDS011;40978;52.850;6.506;2023-05-31T02:52:18;11.27;;;6.78;;
55082;SDS011;40978;52.850;6.506;2023-05-31T02:54:46;11.43;;;7.43;;
55082;SDS011;40978;52.850;6.506;2023-05-31T02:57:12;13.70;;;7.97;;
55082;SDS011;40978;52.850;6.506;2023-05-31T02:59:43;12.98;;;8.02;;
55082;SDS011;40978;52.850;6.506;2023-05-31T03:02:12;15.10;;;7.82;;
55082;SDS011;40978;52.850;6.506;2023-05-31T03:04:38;13.23;;;7.50;;
55082;SDS011;40978;52.850;6.506;2023-05-31T03:07:04;13.85;;;7.82;;
55082;SDS011;40978;52.850;6.506;2023-05-31T03:09:29;11.52;;;7.18;;
55082;SDS011;40978;52.850;6.506;2023-05-31T03:11:55;13.93;;;7.50;;
55082;SDS011;40978;52.850;6.506;2023-05-31T03:14:21;11.63;;;6.97;;
55082;SDS011;40978;52.850;6.506;2023-05-31T03:16:47;10.85;;;7.53;;
55082;SDS011;40978;52.850;6.506;2023-05-31T03:19:12;10.77;;;6.70;;
55082;SDS011;40978;52.850;6.506;2023-05-31T03:21:41;16.35;;;7.90;;
55082;SDS011;40978;52.850;6.506;2023-05-31T03:24:07;12.52;;;7.20;;
55082;SDS011;40978;52.850;6.506;2023-05-31T03:26:32;12.95;;;7.82;;
55082;SDS011;40978;52.850;6.506;2023-05-31T03:28:58;12.02;;;7.85;;
55082;SDS011;40978;52.850;6.506;2023-05-31T03:31:24;17.20;;;8.43;;
55082;SDS011;40978;52.850;6.506;2023-05-31T03:33:50;12.75;;;7.65;;
55082;SDS011;40978;52.850;6.506;2023-05-31T03:36:16;14.75;;;8.18;;
55082;SDS011;40978;52.850;6.506;2023-05-31T03:38:42;13.10;;;7.95;;
55082;SDS011;40978;52.850;6.506;2023-05-31T03:41:07;14.77;;;8.10;;
55082;SDS011;40978;52.850;6.506;2023-05-31T03:43:33;20.60;;;8.73;;
55082;SDS011;40978;52.850;6.506;2023-05-31T03:46:02;15.10;;;8.48;;
55082;SDS011;40978;52.850;6.506;2023-05-31T03:48:28;21.88;;;8.93;;
55082;SDS011;40978;52.850;6.506;2023-05-31T03:50:54;15.55;;;8.63;;
55082;SDS011;40978;52.850;6.506;2023-05-31T03:53:21;17.75;;;8.88;;
55082;SDS011;40978;52.850;6.506;2023-05-31T03:55:47;17.02;;;8.75;;
55082;SDS011;40978;52.850;6.506;2023-05-31T03:58:12;15.55;;;8.10;;
55082;SDS011;40978;52.850;6.506;2023-05-31T04:00:41;15.98;;;8.50;;
55082;SDS011;40978;52.850;6.506;2023-05-31T04:03:09;14.10;;;7.85;;
55082;SDS011;40978;52.850;6.506;2023-05-31T04:05:37;16.88;;;9.07;;
55082;SDS011;40978;52.850;6.506;2023-05-31T04:08:03;13.40;;;8.73;;
55082;SDS011;40978;52.850;6.506;2023-05-31T04:10:30;16.10;;;8.80;;
55082;SDS011;40978;52.850;6.506;2023-05-31T04:12:56;16.88;;;8.75;;
55082;SDS011;40978;52.850;6.506;2023-05-31T04:15:21;17.80;;;9.00;;
55082;SDS011;40978;52.850;6.506;2023-05-31T04:17:47;19.10;;;9.13;;
55082;SDS011;40978;52.850;6.506;2023-05-31T04:20:16;14.02;;;8.20;;
55082;SDS011;40978;52.850;6.506;2023-05-31T04:22:46;14.73;;;8.50;;
55082;SDS011;40978;52.850;6.506;2023-05-31T04:25:12;12.70;;;8.15;;
55082;SDS011;40978;52.850;6.506;2023-05-31T04:27:41;15.35;;;8.85;;
55082;SDS011;40978;52.850;6.506;2023-05-31T04:30:07;16.48;;;8.43;;
55082;SDS011;40978;52.850;6.506;2023-05-31T04:32:33;17.55;;;9.05;;
55082;SDS011;40978;52.850;6.506;2023-05-31T04:34:59;17.73;;;9.25;;
55082;SDS011;40978;52.850;6.506;2023-05-31T04:37:28;18.70;;;9.40;;
55082;SDS011;40978;52.850;6.506;2023-05-31T04:39:58;20.30;;;10.18;;
55082;SDS011;40978;52.850;6.506;2023-05-31T04:42:25;16.42;;;8.95;;
55082;SDS011;40978;52.850;6.506;2023-05-31T04:44:54;15.57;;;9.50;;
55082;SDS011;40978;52.850;6.506;2023-05-31T04:47:29;17.73;;;9.23;;
55082;SDS011;40978;52.850;6.506;2023-05-31T04:49:55;14.98;;;9.32;;
55082;SDS011;40978;52.850;6.506;2023-05-31T04:52:28;20.15;;;10.95;;
55082;SDS011;40978;52.850;6.506;2023-05-31T04:54:56;19.77;;;11.27;;
55082;SDS011;40978;52.850;6.506;2023-05-31T04:57:23;17.27;;;10.38;;
55082;SDS011;40978;52.850;6.506;2023-05-31T04:59:52;18.70;;;9.40;;
55082;SDS011;40978;52.850;6.506;2023-05-31T05:02:18;17.42;;;9.88;;
55082;SDS011;40978;52.850;6.506;2023-05-31T05:04:45;20.02;;;10.00;;
55082;SDS011;40978;52.850;6.506;2023-05-31T05:07:13;14.85;;;10.02;;
55082;SDS011;40978;52.850;6.506;2023-05-31T05:09:41;17.42;;;9.68;;
55082;SDS011;40978;52.850;6.506;2023-05-31T05:12:08;16.08;;;8.85;;
55082;SDS011;40978;52.850;6.506;2023-05-31T05:14:34;20.70;;;10.10;;
55082;SDS011;40978;52.850;6.506;2023-05-31T05:17:00;15.55;;;8.98;;
55082;SDS011;40978;52.850;6.506;2023-05-31T05:19:25;14.23;;;8.43;;
55082;SDS011;40978;52.850;6.506;2023-05-31T05:21:51;18.15;;;9.18;;
55082;SDS011;40978;52.850;6.506;2023-05-31T05:24:17;13.15;;;8.25;;
55082;SDS011;40978;52.850;6.506;2023-05-31T05:26:46;12.75;;;8.55;;
55082;SDS011;40978;52.850;6.506;2023-05-31T05:29:12;14.13;;;8.70;;
55082;SDS011;40978;52.850;6.506;2023-05-31T05:31:37;14.10;;;8.50;;
55082;SDS011;40978;52.850;6.506;2023-05-31T05:34:03;15.00;;;7.43;;
55082;SDS011;40978;52.850;6.506;2023-05-31T05:36:29;13.57;;;8.55;;
55082;SDS011;40978;52.850;6.506;2023-05-31T05:38:57;14.63;;;7.45;;
55082;SDS011;40978;52.850;6.506;2023-05-31T05:41:29;14.85;;;7.80;;
55082;SDS011;40978;52.850;6.506;2023-05-31T05:43:55;14.95;;;8.00;;
55082;SDS011;40978;52.850;6.506;2023-05-31T05:46:21;12.18;;;7.68;;
55082;SDS011;40978;52.850;6.506;2023-05-31T05:48:46;10.90;;;7.18;;
55082;SDS011;40978;52.850;6.506;2023-05-31T05:51:12;10.57;;;6.80;;
55082;SDS011;40978;52.850;6.506;2023-05-31T05:53:40;18.23;;;7.60;;
55082;SDS011;40978;52.850;6.506;2023-05-31T05:56:06;13.70;;;7.32;;
55082;SDS011;40978;52.850;6.506;2023-05-31T05:58:32;14.48;;;6.60;;
55082;SDS011;40978;52.850;6.506;2023-05-31T06:00:58;12.10;;;6.63;;
55082;SDS011;40978;52.850;6.506;2023-05-31T06:03:24;14.68;;;7.05;;
55082;SDS011;40978;52.850;6.506;2023-05-31T06:05:49;9.50;;;7.03;;
55082;SDS011;40978;52.850;6.506;2023-05-31T06:08:15;11.85;;;6.10;;
55082;SDS011;40978;52.850;6.506;2023-05-31T06:10:41;10.25;;;6.43;;
55082;SDS011;40978;52.850;6.506;2023-05-31T06:13:07;10.90;;;6.93;;
55082;SDS011;40978;52.850;6.506;2023-05-31T06:15:33;13.77;;;7.20;;
55082;SDS011;40978;52.850;6.506;2023-05-31T06:17:59;12.10;;;6.40;;
55082;SDS011;40978;52.850;6.506;2023-05-31T06:20:25;15.23;;;6.40;;
55082;SDS011;40978;52.850;6.506;2023-05-31T06:22:51;11.95;;;6.50;;
55082;SDS011;40978;52.850;6.506;2023-05-31T06:25:18;10.15;;;6.40;;
55082;SDS011;40978;52.850;6.506;2023-05-31T06:27:44;10.90;;;6.45;;
55082;SDS011;40978;52.850;6.506;2023-05-31T06:30:11;11.68;;;5.88;;
55082;SDS011;40978;52.850;6.506;2023-05-31T06:32:40;11.45;;;6.82;;
55082;SDS011;40978;52.850;6.506;2023-05-31T06:35:10;12.70;;;6.35;;
55082;SDS011;40978;52.850;6.506;2023-05-31T06:37:36;11.18;;;5.90;;
55082;SDS011;40978;52.850;6.506;2023-05-31T06:40:02;14.50;;;6.07;;
55082;SDS011;40978;52.850;6.506;2023-05-31T06:42:29;12.38;;;5.97;;
55082;SDS011;40978;52.850;6.506;2023-05-31T06:44:55;12.73;;;6.88;;
55082;SDS011;40978;52.850;6.506;2023-05-31T06:47:21;13.25;;;5.90;;
55082;SDS011;40978;52.850;6.506;2023-05-31T06:49:47;14.43;;;6.05;;
55082;SDS011;40978;52.850;6.506;2023-05-31T06:52:12;9.43;;;5.65;;
55082;SDS011;40978;52.850;6.506;2023-05-31T06:54:42;11.70;;;5.63;;
55082;SDS011;40978;52.850;6.506;2023-05-31T06:57:11;10.88;;;5.85;;
55082;SDS011;40978;52.850;6.506;2023-05-31T06:59:37;10.55;;;6.32;;
55082;SDS011;40978;52.850;6.506;2023-05-31T07:02:03;10.70;;;5.68;;
55082;SDS011;40978;52.850;6.506;2023-05-31T07:04:28;9.75;;;5.50;;
55082;SDS011;40978;52.850;6.506;2023-05-31T07:06:54;12.82;;;5.97;;
55082;SDS011;40978;52.850;6.506;2023-05-31T07:09:20;10.95;;;6.25;;
55082;SDS011;40978;52.850;6.506;2023-05-31T07:11:46;10.20;;;6.00;;
55082;SDS011;40978;52.850;6.506;2023-05-31T07:14:12;10.20;;;6.05;;
55082;SDS011;40978;52.850;6.506;2023-05-31T07:16:38;14.10;;;5.90;;
55082;SDS011;40978;52.850;6.506;2023-05-31T07:19:03;8.50;;;5.45;;
55082;SDS011;40978;52.850;6.506;2023-05-31T07:21:29;13.45;;;5.95;;
55082;SDS011;40978;52.850;6.506;2023-05-31T07:23:56;8.95;;;5.45;;
55082;SDS011;40978;52.850;6.506;2023-05-31T07:26:22;9.75;;;5.90;;
55082;SDS011;40978;52.850;6.506;2023-05-31T07:28:48;7.10;;;5.22;;
55082;SDS011;40978;52.850;6.506;2023-05-31T07:31:18;8.80;;;5.85;;
55082;SDS011;40978;52.850;6.506;2023-05-31T07:33:44;11.82;;;5.95;;
55082;SDS011;40978;52.850;6.506;2023-05-31T07:36:10;12.25;;;6.80;;
55082;SDS011;40978;52.850;6.506;2023-05-31T07:38:36;8.85;;;5.25;;
55082;SDS011;40978;52.850;6.506;2023-05-31T07:41:02;12.20;;;5.45;;
55082;SDS011;40978;52.850;6.506;2023-05-31T07:43:28;10.18;;;5.97;;
55082;SDS011;40978;52.850;6.506;2023-05-31T07:45:57;9.40;;;5.10;;
55082;SDS011;40978;52.850;6.506;2023-05-31T07:48:23;11.65;;;6.45;;
55082;SDS011;40978;52.850;6.506;2023-05-31T07:50:49;9.85;;;5.60;;
55082;SDS011;40978;52.850;6.506;2023-05-31T07:53:15;9.90;;;6.07;;
55082;SDS011;40978;52.850;6.506;2023-05-31T07:55:41;9.43;;;6.28;;
55082;SDS011;40978;52.850;6.506;2023-05-31T07:58:11;10.93;;;5.70;;
55082;SDS011;40978;52.850;6.506;2023-05-31T08:00:41;11.27;;;6.25;;
55082;SDS011;40978;52.850;6.506;2023-05-31T08:03:07;10.27;;;6.63;;
55082;SDS011;40978;52.850;6.506;2023-05-31T08:05:33;9.07;;;5.38;;
55082;SDS011;40978;52.850;6.506;2023-05-31T08:07:58;9.90;;;5.53;;
55082;SDS011;40978;52.850;6.506;2023-05-31T08:10:25;10.52;;;5.35;;
55082;SDS011;40978;52.850;6.506;2023-05-31T08:12:51;10.82;;;4.97;;
55082;SDS011;40978;52.850;6.506;2023-05-31T08:15:17;9.55;;;5.15;;
55082;SDS011;40978;52.850;6.506;2023-05-31T08:17:43;7.38;;;4.70;;
55082;SDS011;40978;52.850;6.506;2023-05-31T08:20:14;10.27;;;5.70;;
55082;SDS011;40978;52.850;6.506;2023-05-31T08:22:42;6.90;;;4.00;;
55082;SDS011;40978;52.850;6.506;2023-05-31T08:25:12;9.27;;;4.95;;
55082;SDS011;40978;52.850;6.506;2023-05-31T08:27:46;11.73;;;4.63;;
55082;SDS011;40978;52.850;6.506;2023-05-31T08:30:12;8.77;;;4.55;;
55082;SDS011;40978;52.850;6.506;2023-05-31T08:32:38;7.43;;;3.67;;
55082;SDS011;40978;52.850;6.506;2023-05-31T08:35:05;7.60;;;3.80;;
55082;SDS011;40978;52.850;6.506;2023-05-31T08:37:32;9.00;;;3.97;;
55082;SDS011;40978;52.850;6.506;2023-05-31T08:40:00;6.50;;;3.80;;
55082;SDS011;40978;52.850;6.506;2023-05-31T08:42:36;10.63;;;4.03;;
55082;SDS011;40978;52.850;6.506;2023-05-31T08:45:03;8.82;;;3.75;;
55082;SDS011;40978;52.850;6.506;2023-05-31T08:47:41;6.03;;;4.07;;
55082;SDS011;40978;52.850;6.506;2023-05-31T08:50:11;8.98;;;3.90;;
55082;SDS011;40978;52.850;6.506;2023-05-31T08:52:37;7.28;;;3.55;;
55082;SDS011;40978;52.850;6.506;2023-05-31T08:55:04;6.25;;;3.35;;
55082;SDS011;40978;52.850;6.506;2023-05-31T08:57:30;7.32;;;3.63;;
55082;SDS011;40978;52.850;6.506;2023-05-31T08:59:58;8.82;;;3.53;;
55082;SDS011;40978;52.850;6.506;2023-05-31T09:02:33;8.23;;;3.40;;
55082;SDS011;40978;52.850;6.506;2023-05-31T09:04:59;10.48;;;4.32;;
55082;SDS011;40978;52.850;6.506;2023-05-31T09:07:28;9.00;;;4.18;;
55082;SDS011;40978;52.850;6.506;2023-05-31T09:09:54;7.97;;;3.42;;
55082;SDS011;40978;52.850;6.506;2023-05-31T09:12:20;8.75;;;3.70;;
55082;SDS011;40978;52.850;6.506;2023-05-31T09:14:46;8.90;;;4.03;;
55082;SDS011;40978;52.850;6.506;2023-05-31T09:17:12;6.05;;;3.70;;
55082;SDS011;40978;52.850;6.506;2023-05-31T09:19:49;7.43;;;3.70;;
55082;SDS011;40978;52.850;6.506;2023-05-31T09:22:17;5.22;;;3.35;;
55082;SDS011;40978;52.850;6.506;2023-05-31T09:24:59;9.07;;;3.60;;
55082;SDS011;40978;52.850;6.506;2023-05-31T09:27:26;7.88;;;3.47;;
55082;SDS011;40978;52.850;6.506;2023-05-31T09:29:59;8.52;;;3.97;;
55082;SDS011;40978;52.850;6.506;2023-05-31T09:32:37;5.63;;;3.45;;
55082;SDS011;40978;52.850;6.506;2023-05-31T09:35:10;11.90;;;3.35;;
55082;SDS011;40978;52.850;6.506;2023-05-31T09:37:45;7.05;;;3.10;;
55082;SDS011;40978;52.850;6.506;2023-05-31T09:40:12;6.72;;;3.08;;
55082;SDS011;40978;52.850;6.506;2023-05-31T09:42:52;8.15;;;2.70;;
55082;SDS011;40978;52.850;6.506;2023-05-31T09:45:20;8.50;;;3.10;;
55082;SDS011;40978;52.850;6.506;2023-05-31T09:47:47;5.38;;;3.00;;
55082;SDS011;40978;52.850;6.506;2023-05-31T09:50:20;6.57;;;3.10;;
55082;SDS011;40978;52.850;6.506;2023-05-31T09:55:14;5.40;;;3.00;;
55082;SDS011;40978;52.850;6.506;2023-05-31T09:57:41;7.80;;;2.80;;
55082;SDS011;40978;52.850;6.506;2023-05-31T10:00:17;7.03;;;3.20;;
55082;SDS011;40978;52.850;6.506;2023-05-31T10:02:50;6.35;;;3.00;;
55082;SDS011;40978;52.850;6.506;2023-05-31T10:05:18;8.75;;;3.00;;
55082;SDS011;40978;52.850;6.506;2023-05-31T10:07:46;7.20;;;3.13;;
55082;SDS011;40978;52.850;6.506;2023-05-31T10:10:13;7.90;;;3.05;;
55082;SDS011;40978;52.850;6.506;2023-05-31T10:12:58;9.40;;;3.13;;
55082;SDS011;40978;52.850;6.506;2023-05-31T10:15:26;6.68;;;2.80;;
55082;SDS011;40978;52.850;6.506;2023-05-31T10:20:38;6.13;;;2.47;;
55082;SDS011;40978;52.850;6.506;2023-05-31T10:23:09;7.68;;;3.00;;
55082;SDS011;40978;52.850;6.506;2023-05-31T10:28:34;6.53;;;3.05;;
55082;SDS011;40978;52.850;6.506;2023-05-31T10:31:03;5.93;;;3.28;;
55082;SDS011;40978;52.850;6.506;2023-05-31T10:33:29;7.00;;;3.33;;
55082;SDS011;40978;52.850;6.506;2023-05-31T10:35:59;6.13;;;3.05;;
55082;SDS011;40978;52.850;6.506;2023-05-31T10:38:28;7.95;;;3.00;;
55082;SDS011;40978;52.850;6.506;2023-05-31T10:41:05;5.75;;;2.65;;
55082;SDS011;40978;52.850;6.506;2023-05-31T10:43:38;6.25;;;2.55;;
55082;SDS011;40978;52.850;6.506;2023-05-31T10:46:10;4.93;;;2.53;;
55082;SDS011;40978;52.850;6.506;2023-05-31T10:51:17;5.97;;;3.05;;
55082;SDS011;40978;52.850;6.506;2023-05-31T10:53:44;6.80;;;2.60;;
55082;SDS011;40978;52.850;6.506;2023-05-31T10:56:15;4.13;;;2.20;;
55082;SDS011;40978;52.850;6.506;2023-05-31T10:58:49;4.60;;;2.00;;
55082;SDS011;40978;52.850;6.506;2023-05-31T11:01:18;8.93;;;2.60;;
55082;SDS011;40978;52.850;6.506;2023-05-31T11:03:50;6.32;;;2.63;;
55082;SDS011;40978;52.850;6.506;2023-05-31T11:06:26;5.65;;;2.50;;
55082;SDS011;40978;52.850;6.506;2023-05-31T11:14:02;7.05;;;2.60;;
55082;SDS011;40978;52.850;6.506;2023-05-31T11:19:15;9.13;;;2.80;;
55082;SDS011;40978;52.850;6.506;2023-05-31T11:21:55;6.90;;;2.53;;
55082;SDS011;40978;52.850;6.506;2023-05-31T11:24:31;6.72;;;3.03;;
55082;SDS011;40978;52.850;6.506;2023-05-31T11:26:59;5.65;;;2.70;;
55082;SDS011;40978;52.850;6.506;2023-05-31T11:35:16;8.85;;;3.90;;
55082;SDS011;40978;52.850;6.506;2023-05-31T11:37:43;7.93;;;3.45;;
55082;SDS011;40978;52.850;6.506;2023-05-31T11:40:10;7.95;;;3.67;;
55082;SDS011;40978;52.850;6.506;2023-05-31T11:42:38;8.95;;;4.00;;
55082;SDS011;40978;52.850;6.506;2023-05-31T11:45:13;10.05;;;4.10;;
55082;SDS011;40978;52.850;6.506;2023-05-31T11:50:18;9.77;;;4.00;;
55082;SDS011;40978;52.850;6.506;2023-05-31T11:52:45;8.75;;;4.13;;
55082;SDS011;40978;52.850;6.506;2023-05-31T11:55:11;7.50;;;3.65;;
55082;SDS011;40978;52.850;6.506;2023-05-31T11:57:40;11.90;;;4.50;;
55082;SDS011;40978;52.850;6.506;2023-05-31T12:00:11;9.13;;;4.03;;
55082;SDS011;40978;52.850;6.506;2023-05-31T12:02:50;6.93;;;3.83;;
55082;SDS011;40978;52.850;6.506;2023-05-31T12:05:17;7.13;;;3.97;;
55082;SDS011;40978;52.850;6.506;2023-05-31T12:07:44;10.02;;;4.45;;
55082;SDS011;40978;52.850;6.506;2023-05-31T12:10:11;7.00;;;3.55;;
55082;SDS011;40978;52.850;6.506;2023-05-31T12:12:40;7.75;;;4.40;;
55082;SDS011;40978;52.850;6.506;2023-05-31T12:15:07;8.98;;;4.10;;
55082;SDS011;40978;52.850;6.506;2023-05-31T12:17:37;7.30;;;3.75;;
55082;SDS011;40978;52.850;6.506;2023-05-31T12:20:04;7.10;;;3.78;;
55082;SDS011;40978;52.850;6.506;2023-05-31T12:22:30;8.43;;;3.88;;
55082;SDS011;40978;52.850;6.506;2023-05-31T12:24:56;7.93;;;4.35;;
55082;SDS011;40978;52.850;6.506;2023-05-31T12:27:23;6.97;;;4.35;;
55082;SDS011;40978;52.850;6.506;2023-05-31T12:29:49;8.80;;;3.63;;
55082;SDS011;40978;52.850;6.506;2023-05-31T12:32:25;8.48;;;3.90;;
55082;SDS011;40978;52.850;6.506;2023-05-31T12:35:07;10.05;;;4.78;;
55082;SDS011;40978;52.850;6.506;2023-05-31T12:37:34;8.40;;;3.92;;
55082;SDS011;40978;52.850;6.506;2023-05-31T12:40:14;6.95;;;4.13;;
55082;SDS011;40978;52.850;6.506;2023-05-31T12:42:41;10.15;;;4.53;;
55082;SDS011;40978;52.850;6.506;2023-05-31T12:45:08;7.78;;;4.30;;
55082;SDS011;40978;52.850;6.506;2023-05-31T12:47:35;9.45;;;4.03;;
55082;SDS011;40978;52.850;6.506;2023-05-31T12:50:04;6.72;;;4.05;;
55082;SDS011;40978;52.850;6.506;2023-05-31T12:52:35;9.13;;;4.35;;
55082;SDS011;40978;52.850;6.506;2023-05-31T12:55:05;8.07;;;4.03;;
55082;SDS011;40978;52.850;6.506;2023-05-31T12:57:32;7.45;;;4.55;;
55082;SDS011;40978;52.850;6.506;2023-05-31T13:02:25;6.97;;;4.20;;
55082;SDS011;40978;52.850;6.506;2023-05-31T13:04:51;7.07;;;3.95;;
55082;SDS011;40978;52.850;6.506;2023-05-31T13:07:17;7.28;;;3.97;;
55082;SDS011;40978;52.850;6.506;2023-05-31T13:09:46;8.15;;;3.92;;
55082;SDS011;40978;52.850;6.506;2023-05-31T13:12:11;10.48;;;4.68;;
55082;SDS011;40978;52.850;6.506;2023-05-31T13:14:37;8.52;;;3.72;;
55082;SDS011;40978;52.850;6.506;2023-05-31T13:17:03;10.25;;;3.97;;
55082;SDS011;40978;52.850;6.506;2023-05-31T13:19:29;6.43;;;3.60;;
55082;SDS011;40978;52.850;6.506;2023-05-31T13:21:55;8.23;;;3.75;;
55082;SDS011;40978;52.850;6.506;2023-05-31T13:24:20;7.20;;;3.55;;
55082;SDS011;40978;52.850;6.506;2023-05-31T13:26:46;8.20;;;3.03;;
55082;SDS011;40978;52.850;6.506;2023-05-31T13:29:12;8.77;;;3.13;;
55082;SDS011;40978;52.850;6.506;2023-05-31T13:31:38;7.65;;;3.00;;
55082;SDS011;40978;52.850;6.506;2023-05-31T13:34:04;6.03;;;3.13;;
55082;SDS011;40978;52.850;6.506;2023-05-31T13:36:30;10.20;;;3.22;;
55082;SDS011;40978;52.850;6.506;2023-05-31T13:38:55;6.07;;;2.53;;
55082;SDS011;40978;52.850;6.506;2023-05-31T13:41:21;8.38;;;3.08;;
55082;SDS011;40978;52.850;6.506;2023-05-31T13:43:48;9.40;;;3.53;;
55082;SDS011;40978;52.850;6.506;2023-05-31T13:46:14;8.95;;;3.22;;
55082;SDS011;40978;52.850;6.506;2023-05-31T13:48:42;7.25;;;2.88;;
55082;SDS011;40978;52.850;6.506;2023-05-31T13:51:08;6.85;;;3.05;;
55082;SDS011;40978;52.850;6.506;2023-05-31T13:53:35;13.32;;;3.20;;
55082;SDS011;40978;52.850;6.506;2023-05-31T13:56:01;5.90;;;2.80;;
55082;SDS011;40978;52.850;6.506;2023-05-31T13:58:32;7.70;;;3.03;;
55082;SDS011;40978;52.850;6.506;2023-05-31T14:00:58;7.43;;;2.95;;
55082;SDS011;40978;52.850;6.506;2023-05-31T14:03:24;7.88;;;3.15;;
55082;SDS011;40978;52.850;6.506;2023-05-31T14:05:50;6.68;;;3.08;;
55082;SDS011;40978;52.850;6.506;2023-05-31T14:08:17;6.05;;;2.70;;
55082;SDS011;40978;52.850;6.506;2023-05-31T14:10:43;7.57;;;3.20;;
55082;SDS011;40978;52.850;6.506;2023-05-31T14:13:12;6.07;;;3.08;;
55082;SDS011;40978;52.850;6.506;2023-05-31T14:15:40;6.82;;;2.60;;
55082;SDS011;40978;52.850;6.506;2023-05-31T14:18:06;10.20;;;3.45;;
55082;SDS011;40978;52.850;6.506;2023-05-31T14:20:33;6.45;;;3.00;;
55082;SDS011;40978;52.850;6.506;2023-05-31T14:22:59;11.98;;;3.60;;
55082;SDS011;40978;52.850;6.506;2023-05-31T14:25:27;5.35;;;3.30;;
55082;SDS011;40978;52.850;6.506;2023-05-31T14:27:53;6.40;;;3.40;;
55082;SDS011;40978;52.850;6.506;2023-05-31T14:30:18;6.78;;;3.10;;
55082;SDS011;40978;52.850;6.506;2023-05-31T14:32:44;6.15;;;3.17;;
55082;SDS011;40978;52.850;6.506;2023-05-31T14:35:10;6.60;;;3.17;;
55082;SDS011;40978;52.850;6.506;2023-05-31T14:37:38;8.73;;;3.15;;
55082;SDS011;40978;52.850;6.506;2023-05-31T14:40:04;8.18;;;3.13;;
55082;SDS011;40978;52.850;6.506;2023-05-31T14:42:30;6.50;;;2.63;;
55082;SDS011;40978;52.850;6.506;2023-05-31T14:44:56;4.90;;;2.58;;
55082;SDS011;40978;52.850;6.506;2023-05-31T14:47:22;6.65;;;2.75;;
55082;SDS011;40978;52.850;6.506;2023-05-31T14:49:48;5.10;;;2.08;;
55082;SDS011;40978;52.850;6.506;2023-05-31T14:52:13;5.28;;;2.60;;
55082;SDS011;40978;52.850;6.506;2023-05-31T14:54:39;5.43;;;2.10;;
55082;SDS011;40978;52.850;6.506;2023-05-31T14:57:05;4.63;;;2.35;;
55082;SDS011;40978;52.850;6.506;2023-05-31T14:59:31;7.15;;;2.50;;
55082;SDS011;40978;52.850;6.506;2023-05-31T15:01:57;4.75;;;2.45;;
55082;SDS011;40978;52.850;6.506;2023-05-31T15:04:26;4.45;;;2.40;;
55082;SDS011;40978;52.850;6.506;2023-05-31T15:06:52;6.40;;;2.50;;
55082;SDS011;40978;52.850;6.506;2023-05-31T15:09:17;6.40;;;2.42;;
55082;SDS011;40978;52.850;6.506;2023-05-31T15:11:45;8.60;;;2.65;;
55082;SDS011;40978;52.850;6.506;2023-05-31T15:14:11;5.80;;;2.17;;
55082;SDS011;40978;52.850;6.506;2023-05-31T15:16:38;3.85;;;2.00;;
55082;SDS011;40978;52.850;6.506;2023-05-31T15:19:04;7.70;;;2.75;;
55082;SDS011;40978;52.850;6.506;2023-05-31T15:21:30;7.07;;;2.85;;